Coronel Joao Sa, Brazil
Current Conditions -  °F | °C
As of 6:00 PM on Monday 22 Dec 2014 (Local Time) from SBUF Reporting Station
Few Clouds Few Clouds  
Wind Chill: 90°   Ceiling: Unl
Heat Index: 92°   Visibility: 6mi
Dew Point: 66°   Wind: 13mph
Humidity: 46%   Direction: 120°ESE
Pressure: 29.85"   Gusts: NA
Location:  10.28°S, 37.93°W
Report Text: SBUF 222100Z 12011KT 9999 FEW020 32/19 Q1011
Loading
Personal Weather Stations






























Interactive Weather Map New forecast layout! Learn more

10-Day Weather Forecast

Advertisements
Track Severe Weather on mobile